sensor_id;sensor_type;location;lat;lon;timestamp;P1;durP1;ratioP1;P2;durP2;ratioP2
76714;SDS011;65644;44.990;20.288;2023-04-19T00:01:25;23.38;;;17.75;;
76714;SDS011;65644;44.990;20.288;2023-04-19T00:03:52;27.83;;;19.00;;
76714;SDS011;65644;44.990;20.288;2023-04-19T00:06:18;27.45;;;20.02;;
76714;SDS011;65644;44.990;20.288;2023-04-19T00:08:45;25.85;;;19.77;;
76714;SDS011;65644;44.990;20.288;2023-04-19T00:11:11;26.90;;;19.38;;
76714;SDS011;65644;44.990;20.288;2023-04-19T00:13:37;27.65;;;20.98;;
76714;SDS011;65644;44.990;20.288;2023-04-19T00:16:03;30.52;;;22.10;;
76714;SDS011;65644;44.990;20.288;2023-04-19T00:18:30;30.25;;;22.02;;
76714;SDS011;65644;44.990;20.288;2023-04-19T00:20:56;28.58;;;19.30;;
76714;SDS011;65644;44.990;20.288;2023-04-19T00:23:22;28.67;;;20.20;;
76714;SDS011;65644;44.990;20.288;2023-04-19T00:25:49;27.17;;;20.55;;
76714;SDS011;65644;44.990;20.288;2023-04-19T00:28:15;30.75;;;21.15;;
76714;SDS011;65644;44.990;20.288;2023-04-19T00:30:41;26.25;;;20.20;;
76714;SDS011;65644;44.990;20.288;2023-04-19T00:33:07;25.58;;;19.40;;
76714;SDS011;65644;44.990;20.288;2023-04-19T00:35:39;30.15;;;20.80;;
76714;SDS011;65644;44.990;20.288;2023-04-19T00:38:08;27.70;;;20.58;;
76714;SDS011;65644;44.990;20.288;2023-04-19T00:40:35;27.88;;;20.92;;
76714;SDS011;65644;44.990;20.288;2023-04-19T00:43:01;29.90;;;22.30;;
76714;SDS011;65644;44.990;20.288;2023-04-19T00:45:27;30.73;;;23.02;;
76714;SDS011;65644;44.990;20.288;2023-04-19T00:47:53;30.85;;;21.67;;
76714;SDS011;65644;44.990;20.288;2023-04-19T00:50:20;29.88;;;22.33;;
76714;SDS011;65644;44.990;20.288;2023-04-19T00:52:46;29.20;;;22.52;;
76714;SDS011;65644;44.990;20.288;2023-04-19T00:55:12;31.63;;;23.38;;
76714;SDS011;65644;44.990;20.288;2023-04-19T00:57:39;33.20;;;23.08;;
76714;SDS011;65644;44.990;20.288;2023-04-19T01:00:05;36.03;;;23.98;;
76714;SDS011;65644;44.990;20.288;2023-04-19T01:02:33;32.38;;;22.95;;
76714;SDS011;65644;44.990;20.288;2023-04-19T01:05:00;33.33;;;23.17;;
76714;SDS011;65644;44.990;20.288;2023-04-19T01:07:26;31.45;;;22.88;;
76714;SDS011;65644;44.990;20.288;2023-04-19T01:09:52;33.88;;;24.55;;
76714;SDS011;65644;44.990;20.288;2023-04-19T01:12:18;38.50;;;26.33;;
76714;SDS011;65644;44.990;20.288;2023-04-19T01:14:44;35.75;;;24.15;;
76714;SDS011;65644;44.990;20.288;2023-04-19T01:17:10;35.42;;;24.27;;
76714;SDS011;65644;44.990;20.288;2023-04-19T01:19:37;35.42;;;25.17;;
76714;SDS011;65644;44.990;20.288;2023-04-19T01:22:03;34.33;;;25.20;;
76714;SDS011;65644;44.990;20.288;2023-04-19T01:24:30;33.28;;;24.17;;
76714;SDS011;65644;44.990;20.288;2023-04-19T01:26:57;35.88;;;25.23;;
76714;SDS011;65644;44.990;20.288;2023-04-19T01:29:23;36.40;;;26.75;;
76714;SDS011;65644;44.990;20.288;2023-04-19T01:31:49;34.15;;;25.65;;
76714;SDS011;65644;44.990;20.288;2023-04-19T01:34:17;35.33;;;25.63;;
76714;SDS011;65644;44.990;20.288;2023-04-19T01:36:44;38.10;;;25.88;;
76714;SDS011;65644;44.990;20.288;2023-04-19T01:39:10;36.38;;;25.63;;
76714;SDS011;65644;44.990;20.288;2023-04-19T01:41:36;34.88;;;24.05;;
76714;SDS011;65644;44.990;20.288;2023-04-19T01:44:02;34.13;;;24.67;;
76714;SDS011;65644;44.990;20.288;2023-04-19T01:46:28;33.55;;;25.50;;
76714;SDS011;65644;44.990;20.288;2023-04-19T01:48:54;34.45;;;25.25;;
76714;SDS011;65644;44.990;20.288;2023-04-19T01:51:20;32.75;;;24.58;;
76714;SDS011;65644;44.990;20.288;2023-04-19T01:53:46;35.75;;;24.75;;
76714;SDS011;65644;44.990;20.288;2023-04-19T01:56:17;37.08;;;25.52;;
76714;SDS011;65644;44.990;20.288;2023-04-19T01:58:43;36.63;;;25.67;;
76714;SDS011;65644;44.990;20.288;2023-04-19T02:01:10;35.03;;;25.77;;
76714;SDS011;65644;44.990;20.288;2023-04-19T02:03:37;34.63;;;24.63;;
76714;SDS011;65644;44.990;20.288;2023-04-19T02:06:03;36.80;;;25.23;;
76714;SDS011;65644;44.990;20.288;2023-04-19T02:08:29;38.08;;;26.08;;
76714;SDS011;65644;44.990;20.288;2023-04-19T02:10:55;38.35;;;25.52;;
76714;SDS011;65644;44.990;20.288;2023-04-19T02:13:21;36.58;;;24.65;;
76714;SDS011;65644;44.990;20.288;2023-04-19T02:15:47;33.53;;;23.77;;
76714;SDS011;65644;44.990;20.288;2023-04-19T02:18:14;34.22;;;25.33;;
76714;SDS011;65644;44.990;20.288;2023-04-19T02:20:42;34.17;;;24.60;;
76714;SDS011;65644;44.990;20.288;2023-04-19T02:23:08;32.00;;;24.02;;
76714;SDS011;65644;44.990;20.288;2023-04-19T02:25:34;32.38;;;24.17;;
76714;SDS011;65644;44.990;20.288;2023-04-19T02:28:00;30.50;;;23.08;;
76714;SDS011;65644;44.990;20.288;2023-04-19T02:30:26;31.38;;;23.85;;
76714;SDS011;65644;44.990;20.288;2023-04-19T02:32:52;32.00;;;24.80;;
76714;SDS011;65644;44.990;20.288;2023-04-19T02:35:19;33.03;;;22.80;;
76714;SDS011;65644;44.990;20.288;2023-04-19T02:37:45;31.50;;;23.30;;
76714;SDS011;65644;44.990;20.288;2023-04-19T02:40:11;36.25;;;24.40;;
76714;SDS011;65644;44.990;20.288;2023-04-19T02:42:37;34.03;;;24.85;;
76714;SDS011;65644;44.990;20.288;2023-04-19T02:45:03;36.55;;;23.83;;
76714;SDS011;65644;44.990;20.288;2023-04-19T02:47:29;34.60;;;24.00;;
76714;SDS011;65644;44.990;20.288;2023-04-19T02:49:55;32.95;;;23.13;;
76714;SDS011;65644;44.990;20.288;2023-04-19T02:52:21;35.90;;;24.75;;
76714;SDS011;65644;44.990;20.288;2023-04-19T02:54:47;37.67;;;25.20;;
76714;SDS011;65644;44.990;20.288;2023-04-19T02:57:13;37.08;;;25.75;;
76714;SDS011;65644;44.990;20.288;2023-04-19T02:59:39;32.28;;;24.83;;
76714;SDS011;65644;44.990;20.288;2023-04-19T03:02:05;38.75;;;25.10;;
76714;SDS011;65644;44.990;20.288;2023-04-19T03:04:31;34.30;;;24.05;;
76714;SDS011;65644;44.990;20.288;2023-04-19T03:06:58;33.40;;;25.05;;
76714;SDS011;65644;44.990;20.288;2023-04-19T03:09:24;36.30;;;25.80;;
76714;SDS011;65644;44.990;20.288;2023-04-19T03:11:50;39.78;;;26.30;;
76714;SDS011;65644;44.990;20.288;2023-04-19T03:14:17;34.35;;;24.95;;
76714;SDS011;65644;44.990;20.288;2023-04-19T03:16:43;33.65;;;24.02;;
76714;SDS011;65644;44.990;20.288;2023-04-19T03:19:09;34.97;;;24.00;;
76714;SDS011;65644;44.990;20.288;2023-04-19T03:21:35;34.80;;;24.30;;
76714;SDS011;65644;44.990;20.288;2023-04-19T03:24:01;33.70;;;23.08;;
76714;SDS011;65644;44.990;20.288;2023-04-19T03:26:27;36.65;;;25.52;;
76714;SDS011;65644;44.990;20.288;2023-04-19T03:28:53;32.97;;;24.60;;
76714;SDS011;65644;44.990;20.288;2023-04-19T03:31:19;30.58;;;23.10;;
76714;SDS011;65644;44.990;20.288;2023-04-19T03:33:45;30.38;;;22.90;;
76714;SDS011;65644;44.990;20.288;2023-04-19T03:36:11;25.08;;;20.17;;
76714;SDS011;65644;44.990;20.288;2023-04-19T03:38:37;31.23;;;22.52;;
76714;SDS011;65644;44.990;20.288;2023-04-19T03:41:04;28.70;;;19.95;;
76714;SDS011;65644;44.990;20.288;2023-04-19T03:43:30;29.42;;;21.45;;
76714;SDS011;65644;44.990;20.288;2023-04-19T03:45:56;31.20;;;21.17;;
76714;SDS011;65644;44.990;20.288;2023-04-19T03:48:22;30.00;;;22.05;;
76714;SDS011;65644;44.990;20.288;2023-04-19T03:50:49;32.28;;;20.58;;
76714;SDS011;65644;44.990;20.288;2023-04-19T03:53:15;35.42;;;21.95;;
76714;SDS011;65644;44.990;20.288;2023-04-19T03:55:42;28.27;;;20.20;;
76714;SDS011;65644;44.990;20.288;2023-04-19T03:58:09;30.08;;;20.27;;
76714;SDS011;65644;44.990;20.288;2023-04-19T04:00:35;23.55;;;18.60;;
76714;SDS011;65644;44.990;20.288;2023-04-19T04:03:01;22.23;;;16.65;;
76714;SDS011;65644;44.990;20.288;2023-04-19T04:05:28;18.52;;;15.95;;
76714;SDS011;65644;44.990;20.288;2023-04-19T04:07:54;19.85;;;14.68;;
76714;SDS011;65644;44.990;20.288;2023-04-19T04:10:20;19.67;;;14.85;;
76714;SDS011;65644;44.990;20.288;2023-04-19T04:12:46;18.40;;;14.18;;
76714;SDS011;65644;44.990;20.288;2023-04-19T04:15:12;16.20;;;12.80;;
76714;SDS011;65644;44.990;20.288;2023-04-19T04:17:38;15.85;;;13.05;;
76714;SDS011;65644;44.990;20.288;2023-04-19T04:20:04;17.20;;;12.80;;
76714;SDS011;65644;44.990;20.288;2023-04-19T04:22:31;16.52;;;11.82;;
76714;SDS011;65644;44.990;20.288;2023-04-19T04:24:57;15.90;;;11.25;;
76714;SDS011;65644;44.990;20.288;2023-04-19T04:27:25;16.25;;;11.63;;
76714;SDS011;65644;44.990;20.288;2023-04-19T04:29:51;13.90;;;11.35;;
76714;SDS011;65644;44.990;20.288;2023-04-19T04:32:17;14.90;;;10.50;;
76714;SDS011;65644;44.990;20.288;2023-04-19T04:34:47;16.77;;;9.73;;
76714;SDS011;65644;44.990;20.288;2023-04-19T04:37:13;14.82;;;10.05;;
76714;SDS011;65644;44.990;20.288;2023-04-19T04:39:40;13.45;;;10.10;;
76714;SDS011;65644;44.990;20.288;2023-04-19T04:42:06;14.02;;;9.60;;
76714;SDS011;65644;44.990;20.288;2023-04-19T04:44:33;14.90;;;9.05;;
76714;SDS011;65644;44.990;20.288;2023-04-19T04:46:59;14.40;;;7.85;;
76714;SDS011;65644;44.990;20.288;2023-04-19T04:49:25;10.43;;;8.60;;
76714;SDS011;65644;44.990;20.288;2023-04-19T04:51:51;15.55;;;8.70;;
76714;SDS011;65644;44.990;20.288;2023-04-19T04:54:17;12.15;;;7.70;;
76714;SDS011;65644;44.990;20.288;2023-04-19T04:56:43;10.65;;;7.65;;
76714;SDS011;65644;44.990;20.288;2023-04-19T04:59:09;11.70;;;8.10;;
76714;SDS011;65644;44.990;20.288;2023-04-19T05:01:35;11.25;;;7.93;;
76714;SDS011;65644;44.990;20.288;2023-04-19T05:04:01;12.90;;;7.90;;
76714;SDS011;65644;44.990;20.288;2023-04-19T05:06:27;12.20;;;7.45;;
76714;SDS011;65644;44.990;20.288;2023-04-19T05:08:53;16.02;;;7.78;;
76714;SDS011;65644;44.990;20.288;2023-04-19T05:11:19;18.20;;;9.63;;
76714;SDS011;65644;44.990;20.288;2023-04-19T05:13:45;13.98;;;9.13;;
76714;SDS011;65644;44.990;20.288;2023-04-19T05:16:11;14.80;;;8.52;;
76714;SDS011;65644;44.990;20.288;2023-04-19T05:18:38;12.52;;;8.13;;
76714;SDS011;65644;44.990;20.288;2023-04-19T05:21:04;11.85;;;7.70;;
76714;SDS011;65644;44.990;20.288;2023-04-19T05:23:32;17.13;;;7.65;;
76714;SDS011;65644;44.990;20.288;2023-04-19T05:25:58;15.20;;;6.85;;
76714;SDS011;65644;44.990;20.288;2023-04-19T05:28:24;14.30;;;8.15;;
76714;SDS011;65644;44.990;20.288;2023-04-19T05:30:50;10.55;;;6.38;;
76714;SDS011;65644;44.990;20.288;2023-04-19T05:33:16;10.00;;;6.25;;
76714;SDS011;65644;44.990;20.288;2023-04-19T05:35:42;8.88;;;6.50;;
76714;SDS011;65644;44.990;20.288;2023-04-19T05:38:08;9.88;;;5.72;;
76714;SDS011;65644;44.990;20.288;2023-04-19T05:40:34;15.52;;;5.88;;
76714;SDS011;65644;44.990;20.288;2023-04-19T05:43:00;13.73;;;6.00;;
76714;SDS011;65644;44.990;20.288;2023-04-19T05:45:28;10.15;;;5.18;;
76714;SDS011;65644;44.990;20.288;2023-04-19T05:47:54;12.07;;;5.65;;
76714;SDS011;65644;44.990;20.288;2023-04-19T05:50:20;7.90;;;5.35;;
76714;SDS011;65644;44.990;20.288;2023-04-19T05:52:46;8.10;;;5.55;;
76714;SDS011;65644;44.990;20.288;2023-04-19T05:55:12;7.22;;;5.43;;
76714;SDS011;65644;44.990;20.288;2023-04-19T05:57:38;10.38;;;6.03;;
76714;SDS011;65644;44.990;20.288;2023-04-19T06:00:04;9.00;;;5.82;;
76714;SDS011;65644;44.990;20.288;2023-04-19T06:02:32;9.32;;;6.07;;
76714;SDS011;65644;44.990;20.288;2023-04-19T06:04:58;7.40;;;5.70;;
76714;SDS011;65644;44.990;20.288;2023-04-19T06:07:28;9.98;;;5.95;;
76714;SDS011;65644;44.990;20.288;2023-04-19T06:09:54;13.90;;;5.22;;
76714;SDS011;65644;44.990;20.288;2023-04-19T06:12:20;10.57;;;5.80;;
76714;SDS011;65644;44.990;20.288;2023-04-19T06:14:46;6.55;;;4.63;;
76714;SDS011;65644;44.990;20.288;2023-04-19T06:17:12;14.45;;;5.82;;
76714;SDS011;65644;44.990;20.288;2023-04-19T06:19:40;7.43;;;4.50;;
76714;SDS011;65644;44.990;20.288;2023-04-19T06:22:06;5.53;;;4.68;;
76714;SDS011;65644;44.990;20.288;2023-04-19T06:24:33;8.57;;;4.97;;
76714;SDS011;65644;44.990;20.288;2023-04-19T06:26:59;7.07;;;5.20;;
76714;SDS011;65644;44.990;20.288;2023-04-19T06:29:26;8.32;;;4.75;;
76714;SDS011;65644;44.990;20.288;2023-04-19T06:31:52;8.43;;;4.68;;
76714;SDS011;65644;44.990;20.288;2023-04-19T06:34:18;8.95;;;5.50;;
76714;SDS011;65644;44.990;20.288;2023-04-19T06:36:44;8.45;;;5.82;;
76714;SDS011;65644;44.990;20.288;2023-04-19T06:39:10;9.60;;;4.93;;
76714;SDS011;65644;44.990;20.288;2023-04-19T06:41:36;8.98;;;5.18;;
76714;SDS011;65644;44.990;20.288;2023-04-19T06:44:02;6.05;;;5.18;;
76714;SDS011;65644;44.990;20.288;2023-04-19T06:46:28;8.85;;;6.18;;
76714;SDS011;65644;44.990;20.288;2023-04-19T06:48:54;8.55;;;5.13;;
76714;SDS011;65644;44.990;20.288;2023-04-19T06:51:20;22.13;;;6.07;;
76714;SDS011;65644;44.990;20.288;2023-04-19T06:53:46;8.95;;;5.45;;
76714;SDS011;65644;44.990;20.288;2023-04-19T06:56:14;7.93;;;5.07;;
76714;SDS011;65644;44.990;20.288;2023-04-19T06:58:40;11.20;;;5.95;;
76714;SDS011;65644;44.990;20.288;2023-04-19T07:01:06;7.03;;;4.95;;
76714;SDS011;65644;44.990;20.288;2023-04-19T07:03:32;10.80;;;5.18;;
76714;SDS011;65644;44.990;20.288;2023-04-19T07:05:58;6.00;;;4.47;;
76714;SDS011;65644;44.990;20.288;2023-04-19T07:08:25;6.90;;;4.80;;
76714;SDS011;65644;44.990;20.288;2023-04-19T07:10:51;9.05;;;4.68;;
76714;SDS011;65644;44.990;20.288;2023-04-19T07:13:18;6.75;;;4.35;;
76714;SDS011;65644;44.990;20.288;2023-04-19T07:15:44;10.18;;;4.43;;
76714;SDS011;65644;44.990;20.288;2023-04-19T07:18:10;5.75;;;4.43;;
76714;SDS011;65644;44.990;20.288;2023-04-19T07:20:38;16.83;;;5.40;;
76714;SDS011;65644;44.990;20.288;2023-04-19T07:23:08;7.25;;;4.25;;
76714;SDS011;65644;44.990;20.288;2023-04-19T07:25:35;11.85;;;5.15;;
76714;SDS011;65644;44.990;20.288;2023-04-19T07:28:01;7.05;;;4.97;;
76714;SDS011;65644;44.990;20.288;2023-04-19T07:30:27;9.57;;;4.88;;
76714;SDS011;65644;44.990;20.288;2023-04-19T07:32:53;9.60;;;5.75;;
76714;SDS011;65644;44.990;20.288;2023-04-19T07:35:19;5.80;;;4.32;;
76714;SDS011;65644;44.990;20.288;2023-04-19T07:37:46;11.90;;;4.72;;
76714;SDS011;65644;44.990;20.288;2023-04-19T07:40:12;8.45;;;4.80;;
76714;SDS011;65644;44.990;20.288;2023-04-19T07:42:38;12.15;;;5.85;;
76714;SDS011;65644;44.990;20.288;2023-04-19T07:45:04;8.50;;;4.55;;
76714;SDS011;65644;44.990;20.288;2023-04-19T07:47:31;5.82;;;4.47;;
76714;SDS011;65644;44.990;20.288;2023-04-19T07:49:57;8.63;;;4.65;;
76714;SDS011;65644;44.990;20.288;2023-04-19T07:52:23;14.35;;;5.30;;
76714;SDS011;65644;44.990;20.288;2023-04-19T07:54:49;9.00;;;4.95;;
76714;SDS011;65644;44.990;20.288;2023-04-19T07:57:15;7.50;;;5.28;;
76714;SDS011;65644;44.990;20.288;2023-04-19T07:59:41;17.95;;;6.82;;
76714;SDS011;65644;44.990;20.288;2023-04-19T08:02:07;7.90;;;5.47;;
76714;SDS011;65644;44.990;20.288;2023-04-19T08:04:33;9.77;;;5.18;;
76714;SDS011;65644;44.990;20.288;2023-04-19T08:07:01;6.35;;;4.82;;
76714;SDS011;65644;44.990;20.288;2023-04-19T08:09:28;7.75;;;5.22;;
76714;SDS011;65644;44.990;20.288;2023-04-19T08:11:54;13.38;;;5.55;;
76714;SDS011;65644;44.990;20.288;2023-04-19T08:14:21;9.23;;;5.85;;
76714;SDS011;65644;44.990;20.288;2023-04-19T08:16:47;13.27;;;5.95;;
76714;SDS011;65644;44.990;20.288;2023-04-19T08:19:13;7.45;;;5.05;;
76714;SDS011;65644;44.990;20.288;2023-04-19T08:21:39;11.93;;;5.50;;
76714;SDS011;65644;44.990;20.288;2023-04-19T08:24:05;8.23;;;5.05;;
76714;SDS011;65644;44.990;20.288;2023-04-19T08:26:31;8.68;;;4.85;;
76714;SDS011;65644;44.990;20.288;2023-04-19T08:28:57;5.95;;;4.53;;
76714;SDS011;65644;44.990;20.288;2023-04-19T08:31:23;8.13;;;4.32;;
76714;SDS011;65644;44.990;20.288;2023-04-19T08:33:49;7.10;;;4.72;;
76714;SDS011;65644;44.990;20.288;2023-04-19T08:36:15;9.10;;;5.22;;
76714;SDS011;65644;44.990;20.288;2023-04-19T08:38:42;9.00;;;4.85;;
76714;SDS011;65644;44.990;20.288;2023-04-19T08:41:09;12.48;;;5.45;;
76714;SDS011;65644;44.990;20.288;2023-04-19T08:43:37;7.57;;;4.95;;
76714;SDS011;65644;44.990;20.288;2023-04-19T08:46:03;11.93;;;5.75;;
76714;SDS011;65644;44.990;20.288;2023-04-19T08:48:29;8.73;;;4.85;;
76714;SDS011;65644;44.990;20.288;2023-04-19T08:50:58;9.25;;;5.10;;
76714;SDS011;65644;44.990;20.288;2023-04-19T08:53:27;6.30;;;4.70;;
76714;SDS011;65644;44.990;20.288;2023-04-19T08:55:53;9.80;;;4.50;;
76714;SDS011;65644;44.990;20.288;2023-04-19T08:58:22;9.75;;;5.25;;
76714;SDS011;65644;44.990;20.288;2023-04-19T09:00:49;7.25;;;4.57;;
76714;SDS011;65644;44.990;20.288;2023-04-19T09:03:15;8.95;;;4.65;;
76714;SDS011;65644;44.990;20.288;2023-04-19T09:05:41;7.22;;;4.95;;
76714;SDS011;65644;44.990;20.288;2023-04-19T09:08:23;6.40;;;5.10;;
76714;SDS011;65644;44.990;20.288;2023-04-19T09:10:57;11.20;;;5.20;;
76714;SDS011;65644;44.990;20.288;2023-04-19T09:13:23;4.82;;;4.30;;
76714;SDS011;65644;44.990;20.288;2023-04-19T09:15:50;8.43;;;4.30;;
76714;SDS011;65644;44.990;20.288;2023-04-19T09:18:17;5.72;;;4.47;;
76714;SDS011;65644;44.990;20.288;2023-04-19T09:20:43;9.52;;;4.93;;
76714;SDS011;65644;44.990;20.288;2023-04-19T09:23:10;8.32;;;3.95;;
76714;SDS011;65644;44.990;20.288;2023-04-19T09:25:37;3.70;;;3.30;;
76714;SDS011;65644;44.990;20.288;2023-04-19T09:28:13;6.60;;;4.35;;
76714;SDS011;65644;44.990;20.288;2023-04-19T09:30:40;4.32;;;2.90;;
76714;SDS011;65644;44.990;20.288;2023-04-19T09:33:06;3.78;;;3.30;;
76714;SDS011;65644;44.990;20.288;2023-04-19T09:38:05;4.15;;;2.95;;
76714;SDS011;65644;44.990;20.288;2023-04-19T09:40:31;8.18;;;3.53;;
76714;SDS011;65644;44.990;20.288;2023-04-19T09:42:57;5.50;;;3.17;;
76714;SDS011;65644;44.990;20.288;2023-04-19T09:45:23;4.82;;;2.80;;
76714;SDS011;65644;44.990;20.288;2023-04-19T09:47:59;4.55;;;2.80;;
76714;SDS011;65644;44.990;20.288;2023-04-19T09:50:26;3.78;;;3.05;;
76714;SDS011;65644;44.990;20.288;2023-04-19T09:52:52;6.70;;;3.08;;
76714;SDS011;65644;44.990;20.288;2023-04-19T09:55:18;6.30;;;3.58;;
76714;SDS011;65644;44.990;20.288;2023-04-19T09:57:44;8.43;;;3.58;;
76714;SDS011;65644;44.990;20.288;2023-04-19T10:00:11;6.03;;;3.08;;
76714;SDS011;65644;44.990;20.288;2023-04-19T10:02:39;8.15;;;4.03;;
76714;SDS011;65644;44.990;20.288;2023-04-19T10:05:06;5.07;;;3.78;;
76714;SDS011;65644;44.990;20.288;2023-04-19T10:07:33;11.55;;;4.50;;
76714;SDS011;65644;44.990;20.288;2023-04-19T10:10:00;7.30;;;4.20;;
76714;SDS011;65644;44.990;20.288;2023-04-19T10:12:27;5.88;;;3.47;;
76714;SDS011;65644;44.990;20.288;2023-04-19T10:14:54;6.55;;;3.80;;
76714;SDS011;65644;44.990;20.288;2023-04-19T10:17:23;5.45;;;3.17;;
76714;SDS011;65644;44.990;20.288;2023-04-19T10:19:57;7.95;;;3.53;;
76714;SDS011;65644;44.990;20.288;2023-04-19T10:27:35;9.00;;;4.22;;
76714;SDS011;65644;44.990;20.288;2023-04-19T10:30:02;7.20;;;4.30;;
76714;SDS011;65644;44.990;20.288;2023-04-19T10:37:33;8.20;;;3.90;;
76714;SDS011;65644;44.990;20.288;2023-04-19T10:39:59;6.70;;;4.65;;
76714;SDS011;65644;44.990;20.288;2023-04-19T10:42:53;9.70;;;4.82;;
76714;SDS011;65644;44.990;20.288;2023-04-19T10:48:09;5.22;;;2.97;;
76714;SDS011;65644;44.990;20.288;2023-04-19T10:51:16;6.80;;;3.95;;
76714;SDS011;65644;44.990;20.288;2023-04-19T10:53:50;11.65;;;4.57;;
76714;SDS011;65644;44.990;20.288;2023-04-19T10:56:17;4.35;;;3.15;;
76714;SDS011;65644;44.990;20.288;2023-04-19T11:04:08;6.55;;;4.28;;
76714;SDS011;65644;44.990;20.288;2023-04-19T11:06:35;4.20;;;3.70;;
76714;SDS011;65644;44.990;20.288;2023-04-19T11:09:01;4.88;;;3.05;;
76714;SDS011;65644;44.990;20.288;2023-04-19T11:11:35;9.00;;;3.65;;
76714;SDS011;65644;44.990;20.288;2023-04-19T11:14:04;4.88;;;2.90;;
76714;SDS011;65644;44.990;20.288;2023-04-19T11:16:32;5.85;;;2.17;;
76714;SDS011;65644;44.990;20.288;2023-04-19T11:18:58;4.18;;;1.80;;
76714;SDS011;65644;44.990;20.288;2023-04-19T11:21:25;3.38;;;1.90;;
76714;SDS011;65644;44.990;20.288;2023-04-19T11:24:11;3.63;;;2.03;;
76714;SDS011;65644;44.990;20.288;2023-04-19T11:26:37;6.20;;;2.78;;
76714;SDS011;65644;44.990;20.288;2023-04-19T11:29:03;2.72;;;2.40;;
76714;SDS011;65644;44.990;20.288;2023-04-19T11:31:32;6.68;;;3.42;;
76714;SDS011;65644;44.990;20.288;2023-04-19T11:33:58;5.63;;;3.15;;
76714;SDS011;65644;44.990;20.288;2023-04-19T11:36:25;5.03;;;3.78;;
76714;SDS011;65644;44.990;20.288;2023-04-19T11:38:51;4.40;;;2.75;;
76714;SDS011;65644;44.990;20.288;2023-04-19T11:41:17;6.40;;;3.30;;
76714;SDS011;65644;44.990;20.288;2023-04-19T11:43:43;8.07;;;3.55;;
76714;SDS011;65644;44.990;20.288;2023-04-19T11:46:11;5.13;;;2.67;;
76714;SDS011;65644;44.990;20.288;2023-04-19T11:48:38;5.18;;;2.88;;
76714;SDS011;65644;44.990;20.288;2023-04-19T11:51:04;3.75;;;2.97;;
76714;SDS011;65644;44.990;20.288;2023-04-19T11:53:31;7.03;;;2.80;;
76714;SDS011;65644;44.990;20.288;2023-04-19T11:56:04;3.03;;;2.58;;
76714;SDS011;65644;44.990;20.288;2023-04-19T12:01:06;6.13;;;3.15;;
76714;SDS011;65644;44.990;20.288;2023-04-19T12:03:33;8.10;;;3.40;;
76714;SDS011;65644;44.990;20.288;2023-04-19T12:06:00;8.73;;;3.90;;
76714;SDS011;65644;44.990;20.288;2023-04-19T12:08:35;8.23;;;3.78;;
76714;SDS011;65644;44.990;20.288;2023-04-19T12:11:02;8.57;;;3.63;;
76714;SDS011;65644;44.990;20.288;2023-04-19T12:13:28;5.03;;;2.90;;
76714;SDS011;65644;44.990;20.288;2023-04-19T12:15:57;9.40;;;4.80;;
76714;SDS011;65644;44.990;20.288;2023-04-19T12:18:23;11.65;;;7.95;;
76714;SDS011;65644;44.990;20.288;2023-04-19T12:20:50;8.80;;;3.70;;
76714;SDS011;65644;44.990;20.288;2023-04-19T12:23:17;7.18;;;3.97;;
76714;SDS011;65644;44.990;20.288;2023-04-19T12:25:45;10.32;;;4.20;;
76714;SDS011;65644;44.990;20.288;2023-04-19T12:28:11;12.45;;;6.10;;
76714;SDS011;65644;44.990;20.288;2023-04-19T12:30:37;9.75;;;5.13;;
76714;SDS011;65644;44.990;20.288;2023-04-19T12:33:05;9.52;;;6.13;;
76714;SDS011;65644;44.990;20.288;2023-04-19T12:35:31;12.13;;;6.63;;
76714;SDS011;65644;44.990;20.288;2023-04-19T12:37:58;9.40;;;6.95;;
76714;SDS011;65644;44.990;20.288;2023-04-19T12:40:24;10.07;;;6.43;;
76714;SDS011;65644;44.990;20.288;2023-04-19T12:42:51;10.00;;;6.45;;
76714;SDS011;65644;44.990;20.288;2023-04-19T12:45:18;9.82;;;6.97;;
76714;SDS011;65644;44.990;20.288;2023-04-19T12:47:44;8.50;;;6.65;;
76714;SDS011;65644;44.990;20.288;2023-04-19T12:50:12;9.32;;;6.07;;
76714;SDS011;65644;44.990;20.288;2023-04-19T12:52:38;8.40;;;6.18;;
76714;SDS011;65644;44.990;20.288;2023-04-19T12:55:05;9.93;;;6.53;;
76714;SDS011;65644;44.990;20.288;2023-04-19T12:57:31;16.52;;;7.40;;
76714;SDS011;65644;44.990;20.288;2023-04-19T12:59:57;10.25;;;7.03;;
76714;SDS011;65644;44.990;20.288;2023-04-19T13:02:23;12.85;;;7.25;;
76714;SDS011;65644;44.990;20.288;2023-04-19T13:04:49;13.02;;;7.93;;
76714;SDS011;65644;44.990;20.288;2023-04-19T13:07:15;15.10;;;8.10;;
76714;SDS011;65644;44.990;20.288;2023-04-19T13:09:41;16.45;;;8.95;;
76714;SDS011;65644;44.990;20.288;2023-04-19T13:12:07;12.27;;;8.23;;
76714;SDS011;65644;44.990;20.288;2023-04-19T13:14:34;13.60;;;7.68;;
76714;SDS011;65644;44.990;20.288;2023-04-19T13:17:00;13.73;;;8.40;;
76714;SDS011;65644;44.990;20.288;2023-04-19T13:19:26;9.50;;;7.30;;
76714;SDS011;65644;44.990;20.288;2023-04-19T13:21:52;12.55;;;6.93;;
76714;SDS011;65644;44.990;20.288;2023-04-19T13:24:18;10.52;;;7.60;;
76714;SDS011;65644;44.990;20.288;2023-04-19T13:26:44;11.15;;;8.35;;
76714;SDS011;65644;44.990;20.288;2023-04-19T13:29:10;15.00;;;9.00;;
76714;SDS011;65644;44.990;20.288;2023-04-19T13:31:36;11.38;;;7.47;;
76714;SDS011;65644;44.990;20.288;2023-04-19T13:34:02;9.30;;;6.68;;
76714;SDS011;65644;44.990;20.288;2023-04-19T13:36:28;10.77;;;6.30;;
76714;SDS011;65644;44.990;20.288;2023-04-19T13:38:55;11.85;;;7.03;;
76714;SDS011;65644;44.990;20.288;2023-04-19T13:41:21;9.07;;;6.30;;
76714;SDS011;65644;44.990;20.288;2023-04-19T13:43:47;10.45;;;7.30;;
76714;SDS011;65644;44.990;20.288;2023-04-19T13:46:13;10.98;;;8.10;;
76714;SDS011;65644;44.990;20.288;2023-04-19T13:48:39;13.15;;;6.43;;
76714;SDS011;65644;44.990;20.288;2023-04-19T13:51:05;9.93;;;6.15;;
76714;SDS011;65644;44.990;20.288;2023-04-19T13:53:31;8.98;;;5.97;;
76714;SDS011;65644;44.990;20.288;2023-04-19T13:55:58;4.03;;;2.95;;
76714;SDS011;65644;44.990;20.288;2023-04-19T13:58:24;4.97;;;3.22;;
76714;SDS011;65644;44.990;20.288;2023-04-19T14:00:50;2.97;;;2.78;;
76714;SDS011;65644;44.990;20.288;2023-04-19T14:03:16;4.25;;;2.80;;
76714;SDS011;65644;44.990;20.288;2023-04-19T14:05:42;7.45;;;2.72;;
76714;SDS011;65644;44.990;20.288;2023-04-19T14:08:08;6.38;;;2.53;;
76714;SDS011;65644;44.990;20.288;2023-04-19T14:10:35;7.95;;;3.17;;
76714;SDS011;65644;44.990;20.288;2023-04-19T14:13:01;11.25;;;3.70;;
76714;SDS011;65644;44.990;20.288;2023-04-19T14:15:27;6.97;;;3.53;;
76714;SDS011;65644;44.990;20.288;2023-04-19T14:17:53;6.30;;;3.58;;
76714;SDS011;65644;44.990;20.288;2023-04-19T14:20:19;6.00;;;3.53;;
76714;SDS011;65644;44.990;20.288;2023-04-19T14:22:45;4.75;;;3.33;;
76714;SDS011;65644;44.990;20.288;2023-04-19T14:25:12;9.52;;;4.10;;
76714;SDS011;65644;44.990;20.288;2023-04-19T14:27:42;9.45;;;4.70;;
76714;SDS011;65644;44.990;20.288;2023-04-19T14:30:08;7.53;;;4.25;;
76714;SDS011;65644;44.990;20.288;2023-04-19T14:32:35;6.53;;;3.50;;
76714;SDS011;65644;44.990;20.288;2023-04-19T14:35:01;7.85;;;3.20;;
76714;SDS011;65644;44.990;20.288;2023-04-19T14:37:27;7.32;;;4.03;;
76714;SDS011;65644;44.990;20.288;2023-04-19T14:39:53;6.22;;;4.57;;
76714;SDS011;65644;44.990;20.288;2023-04-19T14:42:19;10.95;;;4.95;;
76714;SDS011;65644;44.990;20.288;2023-04-19T14:44:45;9.90;;;5.57;;